sensor_id;sensor_type;location;lat;lon;timestamp;P1;durP1;ratioP1;P2;durP2;ratioP2
68987;SDS011;56038;46.080;11.116;2023-07-22T00:03:03;1.38;;;1.25;;
68987;SDS011;56038;46.080;11.116;2023-07-22T00:08:05;1.75;;;1.10;;
68987;SDS011;56038;46.080;11.116;2023-07-22T00:13:08;1.80;;;1.20;;
68987;SDS011;56038;46.080;11.116;2023-07-22T00:18:09;1.23;;;1.13;;
68987;SDS011;56038;46.080;11.116;2023-07-22T00:23:11;1.30;;;1.10;;
68987;SDS011;56038;46.080;11.116;2023-07-22T00:28:14;1.25;;;1.15;;
68987;SDS011;56038;46.080;11.116;2023-07-22T00:33:16;1.95;;;1.10;;
68987;SDS011;56038;46.080;11.116;2023-07-22T00:38:18;1.45;;;1.10;;
68987;SDS011;56038;46.080;11.116;2023-07-22T00:43:21;1.60;;;1.10;;
68987;SDS011;56038;46.080;11.116;2023-07-22T00:48:22;1.50;;;1.15;;
68987;SDS011;56038;46.080;11.116;2023-07-22T00:53:24;1.30;;;0.90;;
68987;SDS011;56038;46.080;11.116;2023-07-22T00:58:28;1.25;;;1.15;;
68987;SDS011;56038;46.080;11.116;2023-07-22T01:03:29;2.42;;;1.35;;
68987;SDS011;56038;46.080;11.116;2023-07-22T01:08:32;4.00;;;1.40;;
68987;SDS011;56038;46.080;11.116;2023-07-22T01:13:35;2.42;;;1.17;;
68987;SDS011;56038;46.080;11.116;2023-07-22T01:18:36;1.65;;;1.25;;
68987;SDS011;56038;46.080;11.116;2023-07-22T01:23:40;1.90;;;1.10;;
68987;SDS011;56038;46.080;11.116;2023-07-22T01:28:42;1.60;;;1.40;;
68987;SDS011;56038;46.080;11.116;2023-07-22T01:33:44;1.92;;;1.20;;
68987;SDS011;56038;46.080;11.116;2023-07-22T01:38:47;2.08;;;1.10;;
68987;SDS011;56038;46.080;11.116;2023-07-22T01:43:49;1.63;;;1.27;;
68987;SDS011;56038;46.080;11.116;2023-07-22T01:48:51;2.67;;;1.30;;
68987;SDS011;56038;46.080;11.116;2023-07-22T01:53:54;1.50;;;1.23;;
68987;SDS011;56038;46.080;11.116;2023-07-22T01:58:56;1.63;;;1.25;;
68987;SDS011;56038;46.080;11.116;2023-07-22T02:03:58;1.55;;;1.38;;
68987;SDS011;56038;46.080;11.116;2023-07-22T02:09:01;2.55;;;1.08;;
68987;SDS011;56038;46.080;11.116;2023-07-22T02:14:08;1.50;;;1.35;;
68987;SDS011;56038;46.080;11.116;2023-07-22T02:19:10;3.08;;;1.27;;
68987;SDS011;56038;46.080;11.116;2023-07-22T02:24:15;2.40;;;1.40;;
68987;SDS011;56038;46.080;11.116;2023-07-22T02:29:17;1.95;;;1.25;;
68987;SDS011;56038;46.080;11.116;2023-07-22T02:34:19;1.75;;;1.40;;
68987;SDS011;56038;46.080;11.116;2023-07-22T02:39:23;2.42;;;1.35;;
68987;SDS011;56038;46.080;11.116;2023-07-22T02:44:25;1.67;;;1.20;;
68987;SDS011;56038;46.080;11.116;2023-07-22T02:49:27;1.60;;;1.02;;
68987;SDS011;56038;46.080;11.116;2023-07-22T02:54:30;2.38;;;1.27;;
68987;SDS011;56038;46.080;11.116;2023-07-22T02:59:32;2.42;;;1.25;;
68987;SDS011;56038;46.080;11.116;2023-07-22T03:04:33;1.33;;;1.10;;
68987;SDS011;56038;46.080;11.116;2023-07-22T03:09:36;1.20;;;1.08;;
68987;SDS011;56038;46.080;11.116;2023-07-22T03:14:38;1.27;;;1.13;;
68987;SDS011;56038;46.080;11.116;2023-07-22T03:19:40;3.35;;;1.33;;
68987;SDS011;56038;46.080;11.116;2023-07-22T03:24:43;1.45;;;1.30;;
68987;SDS011;56038;46.080;11.116;2023-07-22T03:29:44;1.30;;;1.20;;
68987;SDS011;56038;46.080;11.116;2023-07-22T03:34:46;2.67;;;1.35;;
68987;SDS011;56038;46.080;11.116;2023-07-22T03:39:49;2.20;;;1.52;;
68987;SDS011;56038;46.080;11.116;2023-07-22T03:44:51;1.33;;;1.20;;
68987;SDS011;56038;46.080;11.116;2023-07-22T03:49:53;2.58;;;1.48;;
68987;SDS011;56038;46.080;11.116;2023-07-22T03:54:56;2.08;;;1.20;;
68987;SDS011;56038;46.080;11.116;2023-07-22T03:59:58;1.50;;;1.15;;
68987;SDS011;56038;46.080;11.116;2023-07-22T04:04:59;2.63;;;1.38;;
68987;SDS011;56038;46.080;11.116;2023-07-22T04:10:03;1.25;;;1.15;;
68987;SDS011;56038;46.080;11.116;2023-07-22T04:15:05;1.47;;;1.30;;
68987;SDS011;56038;46.080;11.116;2023-07-22T04:20:07;2.22;;;1.55;;
68987;SDS011;56038;46.080;11.116;2023-07-22T04:25:11;3.10;;;1.55;;
68987;SDS011;56038;46.080;11.116;2023-07-22T04:30:13;1.70;;;1.40;;
68987;SDS011;56038;46.080;11.116;2023-07-22T04:35:20;2.85;;;1.42;;
68987;SDS011;56038;46.080;11.116;2023-07-22T04:40:23;3.70;;;1.30;;
68987;SDS011;56038;46.080;11.116;2023-07-22T04:45:25;2.25;;;1.60;;
68987;SDS011;56038;46.080;11.116;2023-07-22T04:50:27;1.65;;;1.20;;
68987;SDS011;56038;46.080;11.116;2023-07-22T04:55:30;2.17;;;1.58;;
68987;SDS011;56038;46.080;11.116;2023-07-22T05:00:33;3.00;;;1.70;;
68987;SDS011;56038;46.080;11.116;2023-07-22T05:05:37;2.40;;;1.42;;
68987;SDS011;56038;46.080;11.116;2023-07-22T05:10:48;3.38;;;1.48;;
68987;SDS011;56038;46.080;11.116;2023-07-22T05:15:49;4.40;;;1.48;;
68987;SDS011;56038;46.080;11.116;2023-07-22T05:20:51;1.75;;;1.50;;
68987;SDS011;56038;46.080;11.116;2023-07-22T05:25:54;1.70;;;1.30;;
68987;SDS011;56038;46.080;11.116;2023-07-22T05:30:56;3.53;;;2.13;;
68987;SDS011;56038;46.080;11.116;2023-07-22T05:35:58;2.28;;;1.35;;
68987;SDS011;56038;46.080;11.116;2023-07-22T05:41:01;2.20;;;1.20;;
68987;SDS011;56038;46.080;11.116;2023-07-22T05:46:02;1.50;;;1.25;;
68987;SDS011;56038;46.080;11.116;2023-07-22T05:51:04;1.33;;;1.02;;
68987;SDS011;56038;46.080;11.116;2023-07-22T05:56:07;1.98;;;1.50;;
68987;SDS011;56038;46.080;11.116;2023-07-22T06:01:09;1.75;;;1.20;;
68987;SDS011;56038;46.080;11.116;2023-07-22T06:06:11;1.73;;;1.40;;
68987;SDS011;56038;46.080;11.116;2023-07-22T06:11:15;1.88;;;1.50;;
68987;SDS011;56038;46.080;11.116;2023-07-22T06:16:17;1.60;;;1.03;;
68987;SDS011;56038;46.080;11.116;2023-07-22T06:21:19;1.40;;;1.10;;
68987;SDS011;56038;46.080;11.116;2023-07-22T06:26:22;1.77;;;1.10;;
68987;SDS011;56038;46.080;11.116;2023-07-22T06:31:23;1.50;;;1.10;;
68987;SDS011;56038;46.080;11.116;2023-07-22T06:36:30;2.00;;;1.35;;
68987;SDS011;56038;46.080;11.116;2023-07-22T06:41:33;2.00;;;1.27;;
68987;SDS011;56038;46.080;11.116;2023-07-22T06:46:34;1.38;;;1.27;;
68987;SDS011;56038;46.080;11.116;2023-07-22T06:51:36;2.75;;;2.05;;
68987;SDS011;56038;46.080;11.116;2023-07-22T06:56:39;3.25;;;1.52;;
68987;SDS011;56038;46.080;11.116;2023-07-22T07:01:41;2.03;;;1.40;;
68987;SDS011;56038;46.080;11.116;2023-07-22T07:06:43;2.28;;;1.60;;
68987;SDS011;56038;46.080;11.116;2023-07-22T07:11:47;1.80;;;1.33;;
68987;SDS011;56038;46.080;11.116;2023-07-22T07:16:49;2.88;;;1.35;;
68987;SDS011;56038;46.080;11.116;2023-07-22T07:21:50;1.52;;;1.20;;
68987;SDS011;56038;46.080;11.116;2023-07-22T07:26:53;1.98;;;1.58;;
68987;SDS011;56038;46.080;11.116;2023-07-22T07:31:55;2.40;;;1.80;;
68987;SDS011;56038;46.080;11.116;2023-07-22T07:36:57;3.05;;;1.73;;
68987;SDS011;56038;46.080;11.116;2023-07-22T07:42:00;1.73;;;1.30;;
68987;SDS011;56038;46.080;11.116;2023-07-22T07:47:02;3.10;;;1.50;;
68987;SDS011;56038;46.080;11.116;2023-07-22T07:52:05;2.25;;;1.58;;
68987;SDS011;56038;46.080;11.116;2023-07-22T07:57:08;1.73;;;1.23;;
68987;SDS011;56038;46.080;11.116;2023-07-22T08:02:10;1.45;;;1.10;;
68987;SDS011;56038;46.080;11.116;2023-07-22T08:07:15;1.42;;;1.20;;
68987;SDS011;56038;46.080;11.116;2023-07-22T08:12:18;2.05;;;1.35;;
68987;SDS011;56038;46.080;11.116;2023-07-22T08:17:19;1.50;;;1.40;;
68987;SDS011;56038;46.080;11.116;2023-07-22T08:22:21;2.13;;;1.42;;
68987;SDS011;56038;46.080;11.116;2023-07-22T08:27:24;1.60;;;1.38;;
68987;SDS011;56038;46.080;11.116;2023-07-22T08:32:26;1.55;;;1.33;;
68987;SDS011;56038;46.080;11.116;2023-07-22T08:37:27;3.05;;;1.88;;
68987;SDS011;56038;46.080;11.116;2023-07-22T08:42:32;1.27;;;1.17;;
68987;SDS011;56038;46.080;11.116;2023-07-22T08:47:37;1.85;;;1.60;;
68987;SDS011;56038;46.080;11.116;2023-07-22T08:52:43;2.08;;;1.55;;
68987;SDS011;56038;46.080;11.116;2023-07-22T08:57:48;2.35;;;1.40;;
68987;SDS011;56038;46.080;11.116;2023-07-22T09:02:51;2.13;;;1.77;;
68987;SDS011;56038;46.080;11.116;2023-07-22T09:07:53;1.80;;;1.45;;
68987;SDS011;56038;46.080;11.116;2023-07-22T09:12:56;1.98;;;1.73;;
68987;SDS011;56038;46.080;11.116;2023-07-22T09:17:59;2.13;;;1.45;;
68987;SDS011;56038;46.080;11.116;2023-07-22T09:23:01;2.15;;;1.50;;
68987;SDS011;56038;46.080;11.116;2023-07-22T09:28:04;1.67;;;1.45;;
68987;SDS011;56038;46.080;11.116;2023-07-22T09:33:06;1.40;;;1.15;;
68987;SDS011;56038;46.080;11.116;2023-07-22T09:38:22;2.95;;;1.45;;
68987;SDS011;56038;46.080;11.116;2023-07-22T09:43:25;4.10;;;1.58;;
68987;SDS011;56038;46.080;11.116;2023-07-22T09:48:27;2.17;;;1.38;;
68987;SDS011;56038;46.080;11.116;2023-07-22T09:53:29;3.42;;;1.55;;
68987;SDS011;56038;46.080;11.116;2023-07-22T09:58:32;1.75;;;1.50;;
68987;SDS011;56038;46.080;11.116;2023-07-22T10:03:34;2.95;;;1.80;;
68987;SDS011;56038;46.080;11.116;2023-07-22T10:08:39;2.13;;;1.67;;
68987;SDS011;56038;46.080;11.116;2023-07-22T10:13:47;1.52;;;1.27;;
68987;SDS011;56038;46.080;11.116;2023-07-22T10:18:49;1.93;;;1.73;;
68987;SDS011;56038;46.080;11.116;2023-07-22T10:23:51;2.10;;;1.90;;
68987;SDS011;56038;46.080;11.116;2023-07-22T10:28:54;3.35;;;2.00;;
68987;SDS011;56038;46.080;11.116;2023-07-22T10:33:58;1.85;;;1.52;;
68987;SDS011;56038;46.080;11.116;2023-07-22T10:38:59;3.50;;;1.77;;
68987;SDS011;56038;46.080;11.116;2023-07-22T10:44:03;3.60;;;1.88;;
68987;SDS011;56038;46.080;11.116;2023-07-22T10:49:09;2.10;;;1.75;;
68987;SDS011;56038;46.080;11.116;2023-07-22T10:54:13;1.92;;;1.50;;
68987;SDS011;56038;46.080;11.116;2023-07-22T10:59:17;2.72;;;1.90;;
68987;SDS011;56038;46.080;11.116;2023-07-22T11:04:28;3.63;;;1.58;;
68987;SDS011;56038;46.080;11.116;2023-07-22T11:09:39;2.55;;;1.52;;
68987;SDS011;56038;46.080;11.116;2023-07-22T11:14:47;2.33;;;1.70;;
68987;SDS011;56038;46.080;11.116;2023-07-22T11:19:50;3.20;;;2.03;;
68987;SDS011;56038;46.080;11.116;2023-07-22T11:24:52;1.88;;;1.70;;
68987;SDS011;56038;46.080;11.116;2023-07-22T11:29:55;2.15;;;1.85;;
68987;SDS011;56038;46.080;11.116;2023-07-22T11:35:00;3.30;;;2.22;;
68987;SDS011;56038;46.080;11.116;2023-07-22T11:40:01;2.20;;;1.63;;
68987;SDS011;56038;46.080;11.116;2023-07-22T11:45:05;3.88;;;1.90;;
68987;SDS011;56038;46.080;11.116;2023-07-22T11:50:08;3.38;;;1.67;;
68987;SDS011;56038;46.080;11.116;2023-07-22T11:55:10;2.80;;;2.03;;
68987;SDS011;56038;46.080;11.116;2023-07-22T12:00:14;2.13;;;1.80;;
68987;SDS011;56038;46.080;11.116;2023-07-22T12:05:20;2.13;;;1.67;;
68987;SDS011;56038;46.080;11.116;2023-07-22T12:10:26;3.58;;;1.90;;
68987;SDS011;56038;46.080;11.116;2023-07-22T12:15:29;1.58;;;1.48;;
68987;SDS011;56038;46.080;11.116;2023-07-22T12:20:32;1.67;;;1.57;;
68987;SDS011;56038;46.080;11.116;2023-07-22T12:25:35;2.05;;;1.73;;
68987;SDS011;56038;46.080;11.116;2023-07-22T12:30:40;1.90;;;1.80;;
68987;SDS011;56038;46.080;11.116;2023-07-22T12:35:41;2.53;;;1.60;;
68987;SDS011;56038;46.080;11.116;2023-07-22T12:40:43;2.03;;;1.83;;
68987;SDS011;56038;46.080;11.116;2023-07-22T12:45:46;1.88;;;1.60;;
68987;SDS011;56038;46.080;11.116;2023-07-22T12:50:48;2.13;;;1.73;;
68987;SDS011;56038;46.080;11.116;2023-07-22T12:55:50;2.72;;;1.60;;
68987;SDS011;56038;46.080;11.116;2023-07-22T13:00:53;2.55;;;2.17;;
68987;SDS011;56038;46.080;11.116;2023-07-22T13:05:55;1.80;;;1.40;;
68987;SDS011;56038;46.080;11.116;2023-07-22T13:10:58;3.17;;;1.52;;
68987;SDS011;56038;46.080;11.116;2023-07-22T13:16:02;1.48;;;1.17;;
68987;SDS011;56038;46.080;11.116;2023-07-22T13:21:03;3.22;;;1.45;;
68987;SDS011;56038;46.080;11.116;2023-07-22T13:26:05;2.22;;;1.48;;
68987;SDS011;56038;46.080;11.116;2023-07-22T13:31:08;2.13;;;1.60;;
68987;SDS011;56038;46.080;11.116;2023-07-22T13:36:10;1.87;;;1.70;;
68987;SDS011;56038;46.080;11.116;2023-07-22T13:41:11;1.30;;;1.20;;
68987;SDS011;56038;46.080;11.116;2023-07-22T13:46:14;2.10;;;1.50;;
68987;SDS011;56038;46.080;11.116;2023-07-22T13:51:16;2.40;;;1.70;;
68987;SDS011;56038;46.080;11.116;2023-07-22T13:56:18;2.90;;;1.75;;
68987;SDS011;56038;46.080;11.116;2023-07-22T14:01:21;1.80;;;1.70;;
68987;SDS011;56038;46.080;11.116;2023-07-22T14:06:23;2.33;;;2.03;;
68987;SDS011;56038;46.080;11.116;2023-07-22T14:11:25;2.97;;;2.22;;
68987;SDS011;56038;46.080;11.116;2023-07-22T14:16:28;2.30;;;2.10;;
68987;SDS011;56038;46.080;11.116;2023-07-22T14:21:29;3.27;;;1.93;;
68987;SDS011;56038;46.080;11.116;2023-07-22T14:26:31;2.45;;;1.52;;
68987;SDS011;56038;46.080;11.116;2023-07-22T14:31:34;1.70;;;1.58;;
68987;SDS011;56038;46.080;11.116;2023-07-22T14:36:36;3.00;;;1.90;;
68987;SDS011;56038;46.080;11.116;2023-07-22T14:41:40;2.63;;;1.98;;
68987;SDS011;56038;46.080;11.116;2023-07-22T14:46:44;2.15;;;1.70;;
68987;SDS011;56038;46.080;11.116;2023-07-22T14:51:46;3.53;;;1.92;;
68987;SDS011;56038;46.080;11.116;2023-07-22T14:56:47;2.38;;;1.73;;
68987;SDS011;56038;46.080;11.116;2023-07-22T15:01:50;2.40;;;1.85;;
68987;SDS011;56038;46.080;11.116;2023-07-22T15:06:52;2.67;;;1.87;;
68987;SDS011;56038;46.080;11.116;2023-07-22T15:11:54;2.47;;;1.77;;
68987;SDS011;56038;46.080;11.116;2023-07-22T15:16:57;2.90;;;1.73;;
68987;SDS011;56038;46.080;11.116;2023-07-22T15:21:59;2.17;;;1.97;;
68987;SDS011;56038;46.080;11.116;2023-07-22T15:27:01;3.15;;;1.85;;
68987;SDS011;56038;46.080;11.116;2023-07-22T15:32:05;3.25;;;2.20;;
68987;SDS011;56038;46.080;11.116;2023-07-22T15:37:07;2.30;;;1.83;;
68987;SDS011;56038;46.080;11.116;2023-07-22T15:42:08;3.88;;;2.33;;
68987;SDS011;56038;46.080;11.116;2023-07-22T15:47:12;2.75;;;2.05;;
68987;SDS011;56038;46.080;11.116;2023-07-22T15:52:13;2.88;;;1.90;;
68987;SDS011;56038;46.080;11.116;2023-07-22T15:57:15;2.80;;;2.05;;
68987;SDS011;56038;46.080;11.116;2023-07-22T16:02:18;2.22;;;1.80;;
68987;SDS011;56038;46.080;11.116;2023-07-22T16:07:20;3.45;;;2.30;;
68987;SDS011;56038;46.080;11.116;2023-07-22T16:12:21;2.75;;;1.90;;
68987;SDS011;56038;46.080;11.116;2023-07-22T16:17:24;3.72;;;2.30;;
68987;SDS011;56038;46.080;11.116;2023-07-22T16:22:26;3.55;;;2.42;;
68987;SDS011;56038;46.080;11.116;2023-07-22T16:27:28;3.03;;;2.30;;
68987;SDS011;56038;46.080;11.116;2023-07-22T16:32:31;2.40;;;2.20;;
68987;SDS011;56038;46.080;11.116;2023-07-22T16:37:32;2.63;;;2.00;;
68987;SDS011;56038;46.080;11.116;2023-07-22T16:42:34;2.53;;;1.98;;
68987;SDS011;56038;46.080;11.116;2023-07-22T16:47:37;3.60;;;1.90;;
68987;SDS011;56038;46.080;11.116;2023-07-22T16:52:39;2.00;;;1.80;;
68987;SDS011;56038;46.080;11.116;2023-07-22T16:57:40;2.70;;;2.50;;
68987;SDS011;56038;46.080;11.116;2023-07-22T17:02:43;2.15;;;1.95;;
68987;SDS011;56038;46.080;11.116;2023-07-22T17:07:45;2.72;;;2.33;;
68987;SDS011;56038;46.080;11.116;2023-07-22T17:12:47;2.47;;;2.00;;
68987;SDS011;56038;46.080;11.116;2023-07-22T17:17:50;4.40;;;2.17;;
68987;SDS011;56038;46.080;11.116;2023-07-22T17:22:52;2.80;;;1.80;;
68987;SDS011;56038;46.080;11.116;2023-07-22T17:27:54;5.47;;;4.32;;
68987;SDS011;56038;46.080;11.116;2023-07-22T17:32:57;2.85;;;2.08;;
68987;SDS011;56038;46.080;11.116;2023-07-22T17:37:58;4.57;;;2.30;;
68987;SDS011;56038;46.080;11.116;2023-07-22T17:43:00;2.65;;;1.92;;
68987;SDS011;56038;46.080;11.116;2023-07-22T17:48:03;2.75;;;2.03;;
68987;SDS011;56038;46.080;11.116;2023-07-22T17:53:05;3.60;;;2.13;;
68987;SDS011;56038;46.080;11.116;2023-07-22T17:58:08;4.07;;;2.17;;
68987;SDS011;56038;46.080;11.116;2023-07-22T18:03:11;2.60;;;1.90;;
68987;SDS011;56038;46.080;11.116;2023-07-22T18:08:12;1.88;;;1.73;;
68987;SDS011;56038;46.080;11.116;2023-07-22T18:13:14;3.67;;;2.47;;
68987;SDS011;56038;46.080;11.116;2023-07-22T18:18:17;4.25;;;2.28;;
68987;SDS011;56038;46.080;11.116;2023-07-22T18:23:19;2.75;;;1.92;;
68987;SDS011;56038;46.080;11.116;2023-07-22T18:28:20;3.38;;;1.98;;
68987;SDS011;56038;46.080;11.116;2023-07-22T18:33:23;4.32;;;2.17;;
68987;SDS011;56038;46.080;11.116;2023-07-22T18:38:25;2.47;;;2.00;;
68987;SDS011;56038;46.080;11.116;2023-07-22T18:43:29;3.13;;;2.50;;
68987;SDS011;56038;46.080;11.116;2023-07-22T18:48:32;3.38;;;2.13;;
68987;SDS011;56038;46.080;11.116;2023-07-22T18:53:34;3.10;;;2.80;;
68987;SDS011;56038;46.080;11.116;2023-07-22T18:58:36;3.58;;;2.67;;
68987;SDS011;56038;46.080;11.116;2023-07-22T19:03:39;2.63;;;2.42;;
68987;SDS011;56038;46.080;11.116;2023-07-22T19:08:40;4.30;;;2.55;;
68987;SDS011;56038;46.080;11.116;2023-07-22T19:13:42;3.40;;;2.03;;
68987;SDS011;56038;46.080;11.116;2023-07-22T19:18:45;4.15;;;2.40;;
68987;SDS011;56038;46.080;11.116;2023-07-22T19:23:47;2.90;;;2.53;;
68987;SDS011;56038;46.080;11.116;2023-07-22T19:28:48;2.25;;;1.95;;
68987;SDS011;56038;46.080;11.116;2023-07-22T19:33:51;2.20;;;2.00;;
68987;SDS011;56038;46.080;11.116;2023-07-22T19:38:53;12.70;;;8.75;;
68987;SDS011;56038;46.080;11.116;2023-07-22T19:43:55;4.18;;;3.13;;
68987;SDS011;56038;46.080;11.116;2023-07-22T19:48:58;3.47;;;2.25;;
68987;SDS011;56038;46.080;11.116;2023-07-22T19:53:59;3.35;;;2.65;;
68987;SDS011;56038;46.080;11.116;2023-07-22T19:59:01;2.92;;;2.28;;
68987;SDS011;56038;46.080;11.116;2023-07-22T20:04:04;3.35;;;2.72;;
68987;SDS011;56038;46.080;11.116;2023-07-22T20:09:06;5.05;;;2.83;;
68987;SDS011;56038;46.080;11.116;2023-07-22T20:14:08;2.83;;;2.47;;
68987;SDS011;56038;46.080;11.116;2023-07-22T20:19:11;4.88;;;3.38;;
68987;SDS011;56038;46.080;11.116;2023-07-22T20:24:12;3.53;;;2.97;;
68987;SDS011;56038;46.080;11.116;2023-07-22T20:29:14;6.20;;;2.92;;
68987;SDS011;56038;46.080;11.116;2023-07-22T20:34:17;4.15;;;3.15;;
68987;SDS011;56038;46.080;11.116;2023-07-22T20:39:19;8.05;;;3.00;;
68987;SDS011;56038;46.080;11.116;2023-07-22T20:44:21;4.65;;;3.22;;
68987;SDS011;56038;46.080;11.116;2023-07-22T20:49:24;5.25;;;3.17;;
68987;SDS011;56038;46.080;11.116;2023-07-22T20:54:26;5.93;;;3.22;;
68987;SDS011;56038;46.080;11.116;2023-07-22T20:59:28;5.00;;;3.30;;
68987;SDS011;56038;46.080;11.116;2023-07-22T21:04:31;4.88;;;3.55;;
68987;SDS011;56038;46.080;11.116;2023-07-22T21:09:32;3.75;;;3.45;;
68987;SDS011;56038;46.080;11.116;2023-07-22T21:14:34;3.20;;;2.90;;
68987;SDS011;56038;46.080;11.116;2023-07-22T21:19:37;3.97;;;3.03;;
68987;SDS011;56038;46.080;11.116;2023-07-22T21:24:39;5.07;;;2.78;;
68987;SDS011;56038;46.080;11.116;2023-07-22T21:29:41;4.18;;;3.38;;
68987;SDS011;56038;46.080;11.116;2023-07-22T21:34:44;4.53;;;3.00;;
68987;SDS011;56038;46.080;11.116;2023-07-22T21:39:46;4.13;;;2.67;;
68987;SDS011;56038;46.080;11.116;2023-07-22T21:44:48;3.30;;;2.90;;
68987;SDS011;56038;46.080;11.116;2023-07-22T21:49:51;3.72;;;2.88;;
68987;SDS011;56038;46.080;11.116;2023-07-22T21:54:53;4.18;;;3.38;;
68987;SDS011;56038;46.080;11.116;2023-07-22T21:59:54;4.35;;;2.95;;
68987;SDS011;56038;46.080;11.116;2023-07-22T22:04:58;3.50;;;2.65;;
68987;SDS011;56038;46.080;11.116;2023-07-22T22:09:59;3.42;;;2.67;;
68987;SDS011;56038;46.080;11.116;2023-07-22T22:15:01;4.63;;;2.80;;
68987;SDS011;56038;46.080;11.116;2023-07-22T22:20:05;2.90;;;2.70;;
68987;SDS011;56038;46.080;11.116;2023-07-22T22:30:10;3.03;;;2.50;;
68987;SDS011;56038;46.080;11.116;2023-07-22T22:35:13;5.15;;;3.05;;
68987;SDS011;56038;46.080;11.116;2023-07-22T22:40:14;2.67;;;2.30;;
68987;SDS011;56038;46.080;11.116;2023-07-22T22:45:16;3.40;;;2.70;;
68987;SDS011;56038;46.080;11.116;2023-07-22T22:50:19;6.32;;;3.42;;
68987;SDS011;56038;46.080;11.116;2023-07-22T22:55:21;4.68;;;2.80;;
68987;SDS011;56038;46.080;11.116;2023-07-22T23:00:22;3.17;;;2.53;;
68987;SDS011;56038;46.080;11.116;2023-07-22T23:05:30;5.20;;;2.78;;
68987;SDS011;56038;46.080;11.116;2023-07-22T23:10:44;3.70;;;3.33;;
68987;SDS011;56038;46.080;11.116;2023-07-22T23:15:46;4.78;;;2.72;;
68987;SDS011;56038;46.080;11.116;2023-07-22T23:20:49;3.33;;;2.92;;
68987;SDS011;56038;46.080;11.116;2023-07-22T23:25:51;3.10;;;2.50;;
68987;SDS011;56038;46.080;11.116;2023-07-22T23:30:54;3.33;;;2.65;;
68987;SDS011;56038;46.080;11.116;2023-07-22T23:35:57;4.03;;;3.15;;
68987;SDS011;56038;46.080;11.116;2023-07-22T23:41:00;4.53;;;2.80;;
68987;SDS011;56038;46.080;11.116;2023-07-22T23:46:02;4.18;;;2.85;;
68987;SDS011;56038;46.080;11.116;2023-07-22T23:51:08;4.90;;;2.72;;
68987;SDS011;56038;46.080;11.116;2023-07-22T23:56:10;5.75;;;3.95;;
